Time;durP1;ratioP1;P1;durP2;ratioP2;P2;SDS_P1;SDS_P2;PMS_P1;PMS_P2;Temp;Humidity;BMP_temperature;BMP_pressure;BME280_temperature;BME280_humidity;BME280_pressure;Samples;Min_cycle;Max_cycle;Signal;HPM_P1;HPM_P2
2021/06/23 00:01:46;;;;;;;12.48;3.10;;;12.80;99.90;;;;;;5015318;28;20061;-86
2021/06/23 00:04:13;;;;;;;10.60;2.70;;;12.90;99.90;;;;;;5031720;28;20474;-87
2021/06/23 00:06:40;;;;;;;11.23;2.90;;;12.90;99.90;;;;;;5015942;28;20037;-88
2021/06/23 00:09:07;;;;;;;10.70;2.65;;;12.90;99.90;;;;;;5016389;28;20482;-88
2021/06/23 00:11:46;;;;;;;8.85;2.50;;;12.90;99.90;;;;;;5032710;28;20041;-87
2021/06/23 00:14:13;;;;;;;12.82;3.10;;;12.90;99.90;;;;;;5032879;28;20489;-87
2021/06/23 00:16:41;;;;;;;9.38;3.10;;;13.00;99.90;;;;;;5032361;28;20034;-88
2021/06/23 00:19:08;;;;;;;9.93;2.40;;;12.90;99.90;;;;;;5032432;28;20402;-87
2021/06/23 00:21:34;;;;;;;8.52;2.75;;;12.90;99.90;;;;;;5032190;28;20029;-88
2021/06/23 00:24:02;;;;;;;7.68;2.65;;;12.90;99.90;;;;;;5032227;28;20049;-87
2021/06/23 00:26:32;;;;;;;11.63;2.85;;;12.90;99.90;;;;;;5015649;28;20037;-87
2021/06/23 00:28:59;;;;;;;9.30;2.47;;;12.90;99.90;;;;;;5031963;28;20038;-87
2021/06/23 00:31:27;;;;;;;9.88;2.53;;;12.90;99.90;;;;;;5031746;28;20096;-87
2021/06/23 00:33:57;;;;;;;10.82;2.50;;;12.90;99.90;;;;;;5015795;28;20057;-87
2021/06/23 00:36:24;;;;;;;8.48;2.28;;;12.90;99.90;;;;;;5031975;28;20048;-87
2021/06/23 00:38:52;;;;;;;12.60;2.88;;;12.90;99.90;;;;;;5031470;28;20049;-87
2021/06/23 00:41:19;;;;;;;9.30;2.63;;;12.90;99.90;;;;;;5004535;28;20130;-87
2021/06/23 00:43:47;;;;;;;9.45;2.20;;;12.90;99.90;;;;;;5011883;28;20104;-87
2021/06/23 00:46:15;;;;;;;10.07;2.10;;;12.90;99.90;;;;;;5015001;28;20125;-87
2021/06/23 00:48:42;;;;;;;6.75;2.13;;;12.90;99.90;;;;;;5048591;28;20441;-87
2021/06/23 00:51:11;;;;;;;7.97;2.15;;;12.90;99.90;;;;;;5031833;28;20038;-87
2021/06/23 00:53:38;;;;;;;10.52;2.50;;;12.90;99.90;;;;;;5030887;28;20042;-87
2021/06/23 00:56:05;;;;;;;12.40;2.42;;;12.90;99.90;;;;;;5031383;28;20092;-87
2021/06/23 00:58:32;;;;;;;8.15;1.92;;;12.90;99.90;;;;;;5015003;28;20048;-87
2021/06/23 01:00:59;;;;;;;7.90;2.15;;;12.90;99.90;;;;;;5031449;28;20487;-86
2021/06/23 01:03:26;;;;;;;13.85;2.20;;;12.90;99.90;;;;;;5047666;28;20120;-87
2021/06/23 01:05:54;;;;;;;6.05;1.83;;;12.90;99.90;;;;;;5014963;28;20038;-87
2021/06/23 01:08:22;;;;;;;7.05;2.03;;;13.00;99.90;;;;;;5015158;28;20038;-87
2021/06/23 01:10:49;;;;;;;7.28;1.88;;;13.00;99.90;;;;;;5014626;28;20052;-86
2021/06/23 01:13:28;;;;;;;6.47;2.10;;;13.00;99.90;;;;;;5014920;28;20038;-87
2021/06/23 01:15:58;;;;;;;10.55;2.35;;;13.00;99.90;;;;;;5047918;28;20030;-86
2021/06/23 01:18:25;;;;;;;9.07;2.30;;;13.00;99.90;;;;;;5015318;28;20121;-86
2021/06/23 01:20:53;;;;;;;9.68;2.65;;;13.00;99.90;;;;;;4998360;28;20045;-87
2021/06/23 01:23:20;;;;;;;4.50;2.00;;;13.00;99.90;;;;;;5031261;28;20037;-87
2021/06/23 01:25:49;;;;;;;8.68;2.80;;;13.00;99.90;;;;;;5014429;28;20060;-88
2021/06/23 01:28:16;;;;;;;11.35;2.60;;;13.00;99.90;;;;;;5030905;28;20042;-87
2021/06/23 01:30:44;;;;;;;9.23;2.53;;;13.00;99.90;;;;;;5030517;28;20045;-86
2021/06/23 01:33:13;;;;;;;9.60;2.65;;;13.00;99.90;;;;;;5030890;28;20065;-86
2021/06/23 01:35:40;;;;;;;7.63;2.17;;;13.00;99.90;;;;;;5014432;28;20466;-87
2021/06/23 01:38:07;;;;;;;8.60;2.55;;;13.00;99.90;;;;;;5014860;28;20092;-87
2021/06/23 01:40:34;;;;;;;6.78;2.67;;;13.00;99.90;;;;;;5014452;28;20042;-87
2021/06/23 01:43:01;;;;;;;8.95;2.33;;;13.00;99.90;;;;;;5014504;28;20372;-87
2021/06/23 01:45:28;;;;;;;8.63;2.60;;;12.90;99.90;;;;;;5014546;28;20053;-86
2021/06/23 01:47:57;;;;;;;9.88;2.45;;;12.90;99.90;;;;;;5013862;28;20501;-87
2021/06/23 01:50:23;;;;;;;8.73;2.40;;;12.90;99.90;;;;;;5014371;28;20045;-86
2021/06/23 01:52:50;;;;;;;7.18;2.60;;;12.90;99.90;;;;;;5014162;28;20042;-87
2021/06/23 01:55:30;;;;;;;7.88;2.25;;;12.90;99.90;;;;;;5046911;28;20038;-87
2021/06/23 01:58:01;;;;;;;8.00;2.50;;;13.00;99.90;;;;;;5047768;28;20034;-87
2021/06/23 02:00:40;;;;;;;9.55;2.40;;;13.00;99.90;;;;;;5030557;28;20069;-87
2021/06/23 02:03:36;;;;;;;12.57;2.53;;;13.00;99.90;;;;;;5030468;28;20042;-87
2021/06/23 02:06:06;;;;;;;8.85;2.90;;;13.00;99.90;;;;;;5018026;28;20057;-87
2021/06/23 02:08:59;;;;;;;9.30;2.95;;;13.00;99.90;;;;;;5050639;28;20041;-87
2021/06/23 02:11:45;;;;;;;8.75;2.55;;;13.00;99.90;;;;;;5051225;28;20116;-87
2021/06/23 02:14:23;;;;;;;9.80;2.58;;;13.00;99.90;;;;;;5019014;28;20057;-87
2021/06/23 02:16:53;;;;;;;7.00;2.60;;;13.00;99.90;;;;;;5034169;28;20037;-87
2021/06/23 02:19:20;;;;;;;10.18;2.80;;;12.90;99.90;;;;;;5034347;28;20041;-87
2021/06/23 02:21:47;;;;;;;7.00;2.47;;;12.90;99.90;;;;;;5034175;28;20041;-87
2021/06/23 02:24:14;;;;;;;10.95;3.08;;;12.90;99.90;;;;;;5017746;28;20061;-87
2021/06/23 02:26:41;;;;;;;10.95;2.92;;;12.80;99.90;;;;;;5017828;28;20042;-87
2021/06/23 02:29:08;;;;;;;7.70;2.75;;;12.80;99.90;;;;;;5017950;28;20045;-87
2021/06/23 02:31:38;;;;;;;8.48;3.00;;;12.80;99.90;;;;;;5017672;28;20483;-87
2021/06/23 02:34:13;;;;;;;8.43;2.60;;;12.90;99.90;;;;;;5034257;28;20034;-87
2021/06/23 02:36:40;;;;;;;8.57;2.78;;;12.80;99.90;;;;;;5033967;28;20117;-87
2021/06/23 02:39:09;;;;;;;8.20;2.72;;;12.80;99.90;;;;;;5017691;28;20130;-87
2021/06/23 02:41:37;;;;;;;7.70;3.15;;;12.70;99.90;;;;;;5017933;28;20120;-87
2021/06/23 02:44:05;;;;;;;13.20;3.63;;;12.70;99.90;;;;;;5034112;28;20053;-87
2021/06/23 02:46:33;;;;;;;14.07;2.97;;;12.70;99.90;;;;;;5033916;28;20042;-87
2021/06/23 02:49:01;;;;;;;9.23;2.88;;;12.70;99.90;;;;;;5033571;28;20046;-86
2021/06/23 02:51:30;;;;;;;11.30;3.97;;;12.70;99.90;;;;;;5017413;28;20050;-87
2021/06/23 02:53:57;;;;;;;8.65;3.17;;;12.60;99.90;;;;;;5033372;28;20034;-86
2021/06/23 02:56:25;;;;;;;7.35;3.25;;;12.60;99.90;;;;;;5017461;28;20041;-87
2021/06/23 02:58:51;;;;;;;8.32;3.05;;;12.60;99.90;;;;;;5016834;28;20041;-86
2021/06/23 03:01:18;;;;;;;10.27;3.22;;;12.60;99.90;;;;;;5005301;28;20485;-86
2021/06/23 03:03:46;;;;;;;9.98;2.95;;;12.70;99.90;;;;;;5013069;28;20038;-87
2021/06/23 03:06:13;;;;;;;10.45;3.05;;;12.70;99.90;;;;;;5032978;28;20474;-86
2021/06/23 03:08:40;;;;;;;10.27;3.17;;;12.70;99.90;;;;;;5016448;28;20487;-87
2021/06/23 03:11:07;;;;;;;8.23;3.33;;;12.70;99.90;;;;;;5016754;28;20045;-87
2021/06/23 03:13:35;;;;;;;7.97;3.15;;;12.70;99.90;;;;;;5032857;28;20096;-87
2021/06/23 03:16:05;;;;;;;10.30;3.58;;;12.70;99.90;;;;;;5017580;28;20033;-87
2021/06/23 03:18:32;;;;;;;10.43;3.30;;;12.70;99.90;;;;;;5016383;28;20041;-86
2021/06/23 03:21:05;;;;;;;8.82;3.72;;;12.70;99.90;;;;;;5015926;28;20041;-86
2021/06/23 03:23:32;;;;;;;11.23;3.75;;;12.70;99.90;;;;;;5031784;28;20037;-86
2021/06/23 03:25:59;;;;;;;8.82;3.92;;;12.70;99.90;;;;;;5047902;28;20050;-86
2021/06/23 03:28:26;;;;;;;9.02;4.07;;;12.70;99.90;;;;;;5015699;28;20069;-86
2021/06/23 03:30:53;;;;;;;14.00;4.53;;;12.60;99.90;;;;;;5036278;28;20068;-86
2021/06/23 03:33:21;;;;;;;8.30;4.13;;;12.60;99.90;;;;;;5023922;28;20049;-85
2021/06/23 03:35:49;;;;;;;10.88;4.10;;;12.60;99.90;;;;;;5047335;28;20077;-86
2021/06/23 03:38:16;;;;;;;11.45;4.60;;;12.60;99.90;;;;;;5051349;28;20045;-87
2021/06/23 03:40:47;;;;;;;11.73;4.57;;;12.60;99.90;;;;;;5036792;28;20048;-86
2021/06/23 03:43:19;;;;;;;13.68;4.22;;;12.60;99.90;;;;;;5035881;28;20402;-86
2021/06/23 03:46:22;;;;;;;10.63;4.68;;;12.60;99.90;;;;;;5025189;28;20052;-86
2021/06/23 03:48:56;;;;;;;11.48;4.45;;;12.50;99.90;;;;;;5021116;28;20144;-86
2021/06/23 03:51:26;;;;;;;11.68;4.25;;;12.50;99.90;;;;;;5034651;28;20061;-85
2021/06/23 03:54:02;;;;;;;13.50;4.45;;;12.60;99.90;;;;;;5035285;28;20535;-86
2021/06/23 03:56:34;;;;;;;11.63;4.57;;;12.50;99.90;;;;;;5036572;28;20045;-86
2021/06/23 03:59:04;;;;;;;15.65;6.05;;;12.50;99.90;;;;;;5051621;28;20045;-86
2021/06/23 04:01:34;;;;;;;10.90;4.53;;;12.50;99.90;;;;;;5052371;28;20033;-87
2021/06/23 04:04:01;;;;;;;16.70;4.90;;;12.40;99.90;;;;;;5035034;28;20041;-86
2021/06/23 04:06:29;;;;;;;9.88;4.85;;;12.40;99.90;;;;;;5035449;28;20466;-87
2021/06/23 04:09:00;;;;;;;12.57;4.72;;;12.40;99.90;;;;;;5036501;28;20041;-87
2021/06/23 04:11:27;;;;;;;10.80;4.53;;;12.40;99.90;;;;;;5036047;28;20041;-87
2021/06/23 04:13:56;;;;;;;9.90;4.43;;;12.40;99.90;;;;;;5036055;28;20030;-86
2021/06/23 04:16:23;;;;;;;13.25;4.57;;;12.40;99.90;;;;;;5051892;28;20108;-86
2021/06/23 04:18:50;;;;;;;9.25;4.90;;;12.50;99.90;;;;;;5051710;28;20087;-86
2021/06/23 04:21:17;;;;;;;9.68;5.28;;;12.50;99.90;;;;;;5051894;28;20489;-86
2021/06/23 04:24:11;;;;;;;12.75;5.55;;;12.50;99.90;;;;;;5038204;28;20136;-87
2021/06/23 04:27:03;;;;;;;;;;;;;;;;;;;;;
2021/06/23 04:29:39;;;;;;;13.70;6.18;;;12.50;99.90;;;;;;5067955;28;20068;-86
2021/06/23 04:32:07;;;;;;;9.50;5.32;;;12.50;99.90;;;;;;5035344;28;20449;-87
2021/06/23 04:34:35;;;;;;;11.80;5.97;;;12.50;99.90;;;;;;5035866;28;20049;-86
2021/06/23 04:37:19;;;;;;;12.27;5.68;;;12.60;99.90;;;;;;5035184;28;20046;-87
2021/06/23 04:40:12;;;;;;;10.65;5.10;;;12.60;99.90;;;;;;5020519;28;20107;-87
2021/06/23 04:42:42;;;;;;;10.63;5.55;;;12.60;99.90;;;;;;5052154;28;20120;-87
2021/06/23 04:45:19;;;;;;;12.10;5.70;;;12.60;99.90;;;;;;5035743;28;20039;-87
2021/06/23 04:47:56;;;;;;;10.70;6.13;;;12.70;99.90;;;;;;5051884;28;20037;-87
2021/06/23 04:50:26;;;;;;;10.73;5.10;;;12.80;99.90;;;;;;5035565;28;20497;-87
2021/06/23 04:53:17;;;;;;;11.98;6.13;;;12.80;99.90;;;;;;5068520;28;20034;-87
2021/06/23 04:55:57;;;;;;;13.05;5.05;;;12.70;99.90;;;;;;5020795;28;20049;-87
2021/06/23 04:58:55;;;;;;;13.55;5.72;;;12.90;99.90;;;;;;5052327;28;20053;-86
2021/06/23 05:01:51;;;;;;;10.70;4.80;;;12.90;99.90;;;;;;5051450;28;20037;-86
2021/06/23 05:04:39;;;;;;;15.27;5.72;;;13.00;99.90;;;;;;4999142;28;20041;-86
2021/06/23 05:07:07;;;;;;;29.42;5.93;;;12.90;99.90;;;;;;5021525;28;20136;-87
2021/06/23 05:09:41;;;;;;;13.68;5.35;;;13.20;99.90;;;;;;5051120;28;20121;-86
2021/06/23 05:12:09;;;;;;;11.82;5.55;;;13.20;99.90;;;;;;5018479;28;20363;-87
2021/06/23 05:15:11;;;;;;;13.38;5.68;;;13.30;99.90;;;;;;5051399;28;20401;-87
2021/06/23 05:17:39;;;;;;;13.50;5.18;;;13.30;99.90;;;;;;5051132;28;20034;-86
2021/06/23 05:20:06;;;;;;;15.63;5.13;;;13.30;99.90;;;;;;5034360;28;20394;-86
2021/06/23 05:22:33;;;;;;;11.55;5.28;;;13.30;99.90;;;;;;5050858;28;20041;-86
2021/06/23 05:25:01;;;;;;;12.80;5.00;;;13.40;99.90;;;;;;5033931;28;20112;-86
2021/06/23 05:27:28;;;;;;;9.63;4.20;;;13.30;99.90;;;;;;5051057;28;20060;-86
2021/06/23 05:29:55;;;;;;;16.27;4.32;;;13.40;99.90;;;;;;5034005;28;20041;-86
2021/06/23 05:32:22;;;;;;;10.15;4.00;;;13.30;99.90;;;;;;5034737;28;20045;-86
2021/06/23 05:34:49;;;;;;;10.48;4.50;;;13.30;99.90;;;;;;5034085;28;20029;-86
2021/06/23 05:37:18;;;;;;;15.05;4.65;;;13.30;99.90;;;;;;5034502;28;20466;-86
2021/06/23 05:39:45;;;;;;;11.13;4.28;;;13.30;99.90;;;;;;5050558;28;20083;-86
2021/06/23 05:42:11;;;;;;;13.02;4.35;;;13.30;99.90;;;;;;5033493;28;20071;-86
2021/06/23 05:44:38;;;;;;;14.13;4.47;;;13.30;99.90;;;;;;5050747;28;20037;-86
2021/06/23 05:47:06;;;;;;;14.38;4.60;;;13.30;99.90;;;;;;5050374;28;20046;-87
2021/06/23 05:49:32;;;;;;;9.80;4.25;;;13.30;99.90;;;;;;5033939;28;20043;-87
2021/06/23 05:51:59;;;;;;;10.60;4.28;;;13.30;99.90;;;;;;5033655;28;20041;-86
2021/06/23 05:54:26;;;;;;;13.15;3.95;;;13.40;99.90;;;;;;5033889;28;20069;-86
2021/06/23 05:56:53;;;;;;;10.43;3.80;;;13.40;99.90;;;;;;5049924;28;20061;-86
2021/06/23 05:59:20;;;;;;;13.18;4.15;;;13.40;99.90;;;;;;5034372;28;20112;-87
2021/06/23 06:01:47;;;;;;;11.07;4.20;;;13.50;99.90;;;;;;5033365;28;20042;-87
2021/06/23 06:04:13;;;;;;;11.55;3.80;;;13.60;99.90;;;;;;5050678;28;20034;-86
2021/06/23 06:06:40;;;;;;;11.63;3.78;;;13.60;99.90;;;;;;5034192;28;20706;-86
2021/06/23 06:09:07;;;;;;;13.73;3.47;;;13.60;99.90;;;;;;5034274;28;20103;-87
2021/06/23 06:11:34;;;;;;;7.82;3.30;;;13.70;99.90;;;;;;5034366;28;20120;-87
2021/06/23 06:14:01;;;;;;;6.68;2.90;;;13.80;99.90;;;;;;5033393;28;20042;-87
2021/06/23 06:16:27;;;;;;;11.38;3.15;;;13.90;99.90;;;;;;5034071;28;20469;-87
2021/06/23 06:18:56;;;;;;;10.25;3.10;;;13.90;99.90;;;;;;5049716;28;20038;-87
2021/06/23 06:21:23;;;;;;;11.57;3.22;;;13.90;99.90;;;;;;5034142;28;20038;-86
2021/06/23 06:23:50;;;;;;;11.35;3.00;;;14.00;99.90;;;;;;5049865;28;20049;-86
2021/06/23 06:26:17;;;;;;;10.88;3.08;;;13.90;99.90;;;;;;5033607;28;20041;-86
2021/06/23 06:28:45;;;;;;;12.77;3.05;;;14.00;99.90;;;;;;5067564;28;20475;-86
2021/06/23 06:31:12;;;;;;;12.68;3.00;;;13.90;99.90;;;;;;5049304;28;20060;-86
2021/06/23 06:33:39;;;;;;;12.98;3.05;;;13.90;99.90;;;;;;5034375;28;20037;-87
2021/06/23 06:36:06;;;;;;;9.73;2.95;;;13.80;99.90;;;;;;5019497;28;20394;-87
2021/06/23 06:38:33;;;;;;;12.73;3.05;;;13.90;99.90;;;;;;5034344;28;20124;-87
2021/06/23 06:40:59;;;;;;;9.90;2.95;;;13.80;99.90;;;;;;5034018;28;20075;-87
2021/06/23 06:43:26;;;;;;;9.20;3.17;;;13.80;99.90;;;;;;5016549;28;20581;-86
2021/06/23 06:45:53;;;;;;;10.85;3.13;;;13.80;99.90;;;;;;5014027;28;20061;-86
2021/06/23 06:48:21;;;;;;;11.07;3.15;;;13.80;99.90;;;;;;5033496;28;20046;-84
2021/06/23 06:50:49;;;;;;;13.10;3.45;;;13.90;99.90;;;;;;5059180;28;20385;-85
2021/06/23 06:53:16;;;;;;;10.65;3.53;;;13.90;99.90;;;;;;5033448;28;20033;-86
2021/06/23 06:55:43;;;;;;;12.40;3.55;;;13.90;99.90;;;;;;5036670;28;20395;-85
2021/06/23 06:58:10;;;;;;;8.85;3.20;;;14.00;99.90;;;;;;5060375;28;20025;-85
2021/06/23 07:00:38;;;;;;;11.02;3.30;;;14.00;99.90;;;;;;5017454;28;20120;-85
2021/06/23 07:03:05;;;;;;;8.95;2.92;;;14.00;99.90;;;;;;5025096;28;20057;-85
2021/06/23 07:05:32;;;;;;;15.00;3.60;;;14.00;99.90;;;;;;5028539;28;20040;-86
2021/06/23 07:07:59;;;;;;;9.13;3.00;;;14.00;99.90;;;;;;5049613;28;20084;-85
2021/06/23 07:10:26;;;;;;;16.42;3.53;;;14.10;99.90;;;;;;5034315;28;20384;-87
2021/06/23 07:12:52;;;;;;;10.63;2.80;;;14.10;99.90;;;;;;5014134;28;20042;-87
2021/06/23 07:15:19;;;;;;;14.57;3.50;;;14.00;99.90;;;;;;5020725;28;20202;-87
2021/06/23 07:17:46;;;;;;;13.00;3.63;;;14.10;99.90;;;;;;5036391;28;20037;-87
2021/06/23 07:20:14;;;;;;;10.35;3.20;;;14.10;99.90;;;;;;5036798;28;20497;-87
2021/06/23 07:22:40;;;;;;;10.57;2.85;;;14.20;99.90;;;;;;5020708;28;20037;-92
2021/06/23 07:25:08;;;;;;;13.60;3.20;;;14.20;99.90;;;;;;5018781;28;20054;-87
2021/06/23 07:27:35;;;;;;;10.55;3.30;;;14.20;99.90;;;;;;5017088;28;20037;-86
2021/06/23 07:30:03;;;;;;;12.10;3.13;;;14.30;99.90;;;;;;5000635;28;20065;-86
2021/06/23 07:32:33;;;;;;;7.80;2.80;;;14.30;99.90;;;;;;5033002;28;20442;-86
2021/06/23 07:37:46;;;;;;;15.45;3.17;;;14.40;99.90;;;;;;5022470;28;20530;-86
2021/06/23 07:40:14;;;;;;;9.57;2.88;;;14.50;99.90;;;;;;5016566;28;20172;-87
2021/06/23 07:42:41;;;;;;;8.07;3.35;;;14.50;99.90;;;;;;5021918;28;20037;-86
2021/06/23 07:45:11;;;;;;;12.38;2.63;;;14.60;99.90;;;;;;5036670;28;20040;-87
2021/06/23 07:47:39;;;;;;;11.27;3.00;;;14.60;99.90;;;;;;5053373;28;20430;-87
2021/06/23 07:50:08;;;;;;;10.23;3.05;;;14.50;99.90;;;;;;5052777;28;20037;-85
2021/06/23 08:12:25;;;;;;;11.23;2.90;;;15.10;99.90;;;;;;4959068;29;20091;-88
2021/06/23 08:14:52;;;;;;;16.60;2.60;;;15.10;99.90;;;;;;5011310;28;20048;-87
2021/06/23 08:17:20;;;;;;;8.95;2.55;;;15.10;99.90;;;;;;5046180;28;20445;-87
2021/06/23 08:19:47;;;;;;;9.07;2.47;;;15.20;99.90;;;;;;5036351;28;20053;-87
2021/06/23 08:22:14;;;;;;;9.93;2.75;;;15.20;99.90;;;;;;5020006;28;20045;-88
2021/06/23 08:24:41;;;;;;;11.40;2.30;;;15.30;99.90;;;;;;5036553;28;20037;-87
2021/06/23 08:27:09;;;;;;;8.35;2.28;;;15.60;99.90;;;;;;5016643;28;20054;-90
2021/06/23 08:29:36;;;;;;;9.50;2.58;;;15.90;99.90;;;;;;5033433;28;20120;-90
2021/06/23 08:32:03;;;;;;;9.82;3.17;;;16.10;99.90;;;;;;5017011;28;20093;-89
2021/06/23 08:34:30;;;;;;;12.93;2.85;;;16.20;99.90;;;;;;5017221;28;20475;-89
2021/06/23 08:36:57;;;;;;;11.98;3.42;;;16.20;99.90;;;;;;5033373;28;20037;-89
2021/06/23 08:39:25;;;;;;;14.40;3.97;;;16.20;99.90;;;;;;5032578;28;20473;-88
2021/06/23 08:41:52;;;;;;;9.63;3.65;;;16.10;99.90;;;;;;5032871;28;20033;-89
2021/06/23 08:44:19;;;;;;;11.40;3.13;;;16.20;99.90;;;;;;5012874;28;20099;-88
2021/06/23 08:46:52;;;;;;;7.72;2.78;;;15.90;99.90;;;;;;5032220;28;20493;-89
2021/06/23 08:49:19;;;;;;;13.27;2.95;;;15.90;99.90;;;;;;5012249;28;20430;-89
2021/06/23 08:51:48;;;;;;;10.35;2.63;;;15.90;99.90;;;;;;5017068;28;20045;-89
2021/06/23 08:54:14;;;;;;;8.82;2.30;;;15.90;99.90;;;;;;5000885;28;20030;-89
2021/06/23 08:56:41;;;;;;;9.77;2.72;;;15.90;99.90;;;;;;4980793;28;20050;-89
2021/06/23 08:59:08;;;;;;;8.88;2.38;;;16.10;99.90;;;;;;4980641;28;20566;-90
2021/06/23 09:01:35;;;;;;;13.05;2.53;;;16.20;99.90;;;;;;4981223;28;20038;-90
2021/06/23 09:04:07;;;;;;;7.28;2.13;;;16.20;99.90;;;;;;5029078;28;20399;-89
2021/06/23 09:06:44;;;;;;;11.60;2.80;;;16.20;99.90;;;;;;5015026;28;20038;-90
2021/06/23 09:09:21;;;;;;;7.28;2.20;;;16.30;99.90;;;;;;5047446;28;20109;-89
2021/06/23 09:11:49;;;;;;;7.53;2.05;;;16.20;99.90;;;;;;5032388;28;20050;-90
2021/06/23 09:14:18;;;;;;;7.68;1.90;;;16.30;99.90;;;;;;4999513;28;20042;-89
2021/06/23 09:17:05;;;;;;;8.07;1.80;;;16.50;99.90;;;;;;5031960;28;20046;-89
2021/06/23 09:19:39;;;;;;;6.53;1.83;;;16.70;99.90;;;;;;5031600;28;20088;-90
2021/06/23 09:22:45;;;;;;;11.68;2.00;;;17.00;99.90;;;;;;5008391;28;20056;-89
2021/06/23 09:25:11;;;;;;;11.00;2.30;;;17.00;99.90;;;;;;5040062;28;20058;-89
2021/06/23 09:27:47;;;;;;;5.22;1.80;;;17.10;99.90;;;;;;5032274;28;20382;-90
2021/06/23 09:30:26;;;;;;;8.13;1.67;;;17.00;99.90;;;;;;5015913;28;20049;-90
2021/06/23 09:33:07;;;;;;;9.88;1.77;;;17.10;99.90;;;;;;5031871;28;20041;-89
2021/06/23 09:35:36;;;;;;;12.23;2.40;;;16.90;99.90;;;;;;5031723;28;20052;-90
2021/06/23 09:38:03;;;;;;;6.68;2.13;;;16.90;99.90;;;;;;5031752;28;20057;-89
2021/06/23 09:40:31;;;;;;;9.05;2.47;;;16.80;99.90;;;;;;5015109;28;20497;-89
2021/06/23 09:43:01;;;;;;;12.02;2.33;;;16.80;99.90;;;;;;5032653;28;20053;-89
2021/06/23 09:45:30;;;;;;;7.10;1.95;;;16.80;99.90;;;;;;5015457;28;20492;-89
2021/06/23 09:48:01;;;;;;;12.13;2.25;;;16.70;99.90;;;;;;5016056;28;20041;-89
2021/06/23 09:50:30;;;;;;;7.68;2.10;;;16.70;99.90;;;;;;5048734;28;20065;-88
2021/06/23 09:53:09;;;;;;;7.43;2.15;;;16.70;99.90;;;;;;5031679;28;20045;-89
2021/06/23 09:55:40;;;;;;;12.52;2.28;;;16.70;99.90;;;;;;5031280;28;20190;-89
2021/06/23 09:58:06;;;;;;;4.50;1.77;;;16.70;99.90;;;;;;5031628;28;20204;-88
2021/06/23 10:00:53;;;;;;;8.77;2.25;;;16.60;99.90;;;;;;5031348;28;20581;-90
2021/06/23 10:03:20;;;;;;;6.70;2.28;;;16.60;99.90;;;;;;5017442;28;20034;-89
2021/06/23 10:05:47;;;;;;;8.15;1.88;;;16.60;99.90;;;;;;5015456;28;20038;-90
2021/06/23 10:08:25;;;;;;;6.78;1.92;;;16.70;99.90;;;;;;5034491;28;20034;-88
2021/06/23 10:10:55;;;;;;;8.48;2.33;;;16.70;99.90;;;;;;5033343;28;20038;-91
2021/06/23 10:13:23;;;;;;;17.40;2.72;;;16.70;99.90;;;;;;5031330;28;20084;-89
2021/06/23 10:15:50;;;;;;;12.93;2.38;;;16.70;99.90;;;;;;4999284;28;20406;-88
2021/06/23 10:18:20;;;;;;;7.63;1.65;;;16.70;99.90;;;;;;5015142;28;20052;-87
2021/06/23 10:20:48;;;;;;;6.65;1.80;;;16.90;99.90;;;;;;5015057;28;20046;-88
2021/06/23 10:23:16;;;;;;;10.02;1.90;;;16.80;99.90;;;;;;5031234;28;20050;-88
2021/06/23 10:25:44;;;;;;;8.13;2.55;;;16.80;99.90;;;;;;5031205;28;20049;-88
2021/06/23 10:28:11;;;;;;;9.95;2.30;;;16.80;99.90;;;;;;4999771;28;20503;-88
2021/06/23 10:30:38;;;;;;;11.43;2.50;;;17.00;99.90;;;;;;5018559;28;20120;-88
2021/06/23 10:33:05;;;;;;;12.00;3.20;;;17.00;99.90;;;;;;5035365;28;20139;-87
2021/06/23 10:35:32;;;;;;;10.75;2.80;;;16.90;99.90;;;;;;5018643;28;20034;-88
2021/06/23 10:38:01;;;;;;;8.38;2.95;;;16.80;99.90;;;;;;5018944;28;20061;-89
2021/06/23 10:40:28;;;;;;;9.68;2.28;;;16.60;99.90;;;;;;5003345;28;20053;-89
2021/06/23 10:43:15;;;;;;;12.68;3.00;;;16.60;99.90;;;;;;5019691;28;20038;-89
2021/06/23 10:45:44;;;;;;;9.48;2.83;;;16.60;99.90;;;;;;5036060;28;20489;-89
2021/06/23 10:48:12;;;;;;;11.73;2.80;;;16.60;99.90;;;;;;5034647;28;20491;-88
2021/06/23 10:50:40;;;;;;;9.70;4.07;;;16.70;99.90;;;;;;5039605;28;20068;-88
2021/06/23 10:53:27;;;;;;;10.30;3.30;;;16.60;99.90;;;;;;5054791;28;20048;-88
2021/06/23 10:55:54;;;;;;;6.50;2.28;;;16.60;99.90;;;;;;5071121;28;20033;-88
2021/06/23 10:58:27;;;;;;;7.53;2.08;;;16.60;99.90;;;;;;5054221;28;20044;-88
2021/06/23 11:01:14;;;;;;;9.40;2.45;;;16.60;99.90;;;;;;5054711;28;20038;-91
2021/06/23 11:04:03;;;;;;;9.60;2.35;;;16.50;99.90;;;;;;5054631;28;20046;-87
2021/06/23 11:06:41;;;;;;;8.43;2.40;;;16.50;99.90;;;;;;5042790;28;21457;-89
2021/06/23 11:09:28;;;;;;;11.02;2.05;;;16.50;99.90;;;;;;5051150;28;20038;-91
2021/06/23 11:11:56;;;;;;;8.75;2.08;;;16.50;99.90;;;;;;5050906;28;20033;-90
2021/06/23 11:14:25;;;;;;;8.73;2.35;;;16.50;99.90;;;;;;5018113;28;20041;-89
2021/06/23 11:16:51;;;;;;;14.10;2.28;;;16.40;99.90;;;;;;5018661;28;20034;-95
2021/06/23 11:19:18;;;;;;;11.00;2.50;;;16.40;99.90;;;;;;5002809;28;20089;-93
2021/06/23 11:21:46;;;;;;;6.95;2.00;;;16.50;99.90;;;;;;5002303;28;20034;-88
2021/06/23 11:24:15;;;;;;;8.55;2.13;;;16.60;99.90;;;;;;5034807;28;20371;-94
2021/06/23 11:26:41;;;;;;;6.03;2.05;;;16.70;99.90;;;;;;5017920;28;20050;-90
2021/06/23 11:29:13;;;;;;;7.57;1.95;;;16.90;99.90;;;;;;5033926;28;20038;-88
2021/06/23 11:31:49;;;;;;;8.38;1.90;;;17.30;99.90;;;;;;5032192;28;20058;-88
2021/06/23 11:34:35;;;;;;;7.03;1.90;;;17.40;99.90;;;;;;5031111;28;20034;-89
2021/06/23 11:37:02;;;;;;;14.35;2.63;;;17.80;99.90;;;;;;5046345;28;20034;-90
2021/06/23 11:39:29;;;;;;;5.80;1.98;;;18.00;99.90;;;;;;5032951;28;20049;-88
2021/06/23 11:41:56;;;;;;;7.22;2.08;;;18.30;99.90;;;;;;5066093;28;20034;-88
2021/06/23 11:44:23;;;;;;;6.82;2.00;;;18.40;99.90;;;;;;5025825;28;20042;-87
2021/06/23 11:46:50;;;;;;;6.43;1.90;;;18.40;99.90;;;;;;5018730;28;20091;-89
2021/06/23 11:49:17;;;;;;;9.15;1.70;;;18.60;99.90;;;;;;5018462;28;20050;-90
2021/06/23 11:51:43;;;;;;;12.40;2.10;;;18.40;99.90;;;;;;5036987;28;20049;-91
2021/06/23 11:54:15;;;;;;;7.75;2.25;;;18.30;99.90;;;;;;5021891;28;20034;-88
2021/06/23 11:56:42;;;;;;;10.20;2.33;;;18.20;99.90;;;;;;5051450;28;20061;-87
2021/06/23 11:59:09;;;;;;;8.35;2.20;;;18.30;99.90;;;;;;5014363;28;20068;-88
2021/06/23 12:01:35;;;;;;;10.70;2.15;;;18.20;99.90;;;;;;4998934;28;20034;-90
2021/06/23 12:04:03;;;;;;;7.60;2.03;;;18.10;99.90;;;;;;5014524;28;20035;-87
2021/06/23 12:06:29;;;;;;;7.65;1.60;;;18.20;99.90;;;;;;5013577;28;20042;-90
2021/06/23 12:08:56;;;;;;;6.20;1.70;;;18.30;99.90;;;;;;4997944;28;20498;-91
2021/06/23 12:11:23;;;;;;;14.48;2.22;;;18.50;99.90;;;;;;4998389;28;20042;-89
2021/06/23 12:13:50;;;;;;;6.97;2.10;;;18.30;99.90;;;;;;5013778;28;20039;-89
2021/06/23 12:16:17;;;;;;;9.40;2.10;;;18.20;99.90;;;;;;5014073;28;20045;-90
2021/06/23 12:18:44;;;;;;;11.88;2.10;;;18.30;99.90;;;;;;4997831;28;20042;-90
2021/06/23 12:21:11;;;;;;;8.95;1.90;;;18.10;99.90;;;;;;4998369;28;20398;-89
2021/06/23 12:23:37;;;;;;;5.60;2.05;;;18.20;99.90;;;;;;5014295;28;20038;-90
2021/06/23 12:26:05;;;;;;;9.27;2.42;;;18.40;99.90;;;;;;5014397;28;20069;-89
2021/06/23 12:28:32;;;;;;;10.95;2.60;;;18.20;99.90;;;;;;5013640;28;20045;-88
2021/06/23 12:30:58;;;;;;;10.43;2.28;;;18.40;99.90;;;;;;4997819;28;20034;-90
2021/06/23 12:33:26;;;;;;;8.10;2.40;;;18.60;99.90;;;;;;4997846;28;20034;-87
2021/06/23 12:35:53;;;;;;;8.43;2.67;;;18.70;99.90;;;;;;5014134;28;20140;-89
2021/06/23 12:38:20;;;;;;;11.65;2.97;;;18.70;99.90;;;;;;4997692;28;20066;-90
2021/06/23 12:40:47;;;;;;;8.55;3.03;;;18.60;99.90;;;;;;5013455;28;20459;-90
2021/06/23 12:43:14;;;;;;;10.13;2.97;;;18.70;99.90;;;;;;4998650;28;20046;-89
2021/06/23 12:45:44;;;;;;;11.95;2.90;;;18.80;99.90;;;;;;4973061;28;20050;-87
2021/06/23 12:48:12;;;;;;;9.57;2.80;;;18.80;99.90;;;;;;5015903;28;20402;-86
2021/06/23 12:50:38;;;;;;;14.38;3.25;;;18.60;99.90;;;;;;5031022;28;20669;-86
2021/06/23 12:53:05;;;;;;;8.23;3.58;;;18.60;99.90;;;;;;5031475;28;20076;-86
2021/06/23 12:55:33;;;;;;;9.88;3.20;;;18.50;99.90;;;;;;5016005;28;20045;-86
2021/06/23 12:58:00;;;;;;;9.75;2.80;;;18.60;99.90;;;;;;5032146;28;20056;-86
2021/06/23 13:00:26;;;;;;;14.20;3.35;;;18.70;99.90;;;;;;5032024;28;20085;-86
2021/06/23 13:02:54;;;;;;;12.57;3.97;;;18.80;99.90;;;;;;5015351;28;20072;-86
2021/06/23 13:05:21;;;;;;;11.40;3.90;;;18.70;99.90;;;;;;5031884;28;20042;-85
2021/06/23 13:07:48;;;;;;;8.65;3.33;;;18.60;99.90;;;;;;5015158;28;20091;-86
2021/06/23 13:10:35;;;;;;;10.77;2.88;;;18.70;99.90;;;;;;5020714;28;20497;-85
2021/06/23 13:13:02;;;;;;;9.40;2.65;;;18.70;99.90;;;;;;5015172;28;20042;-85
2021/06/23 13:15:29;;;;;;;8.13;2.75;;;18.70;99.90;;;;;;5030858;28;20030;-87
2021/06/23 13:17:56;;;;;;;8.63;2.53;;;18.80;99.90;;;;;;5014476;28;20041;-86
2021/06/23 13:20:24;;;;;;;6.60;2.38;;;18.70;99.90;;;;;;5031472;28;20045;-86